sensor_id;sensor_type;location;lat;lon;timestamp;P1;durP1;ratioP1;P2;durP2;ratioP2
56255;SDS011;57229;51.432;-2.598;2024-01-25T00:01:11;48.70;;;19.63;;
56255;SDS011;57229;51.432;-2.598;2024-01-25T00:03:37;51.05;;;17.65;;
56255;SDS011;57229;51.432;-2.598;2024-01-25T00:06:04;47.08;;;18.08;;
56255;SDS011;57229;51.432;-2.598;2024-01-25T00:08:30;55.08;;;17.75;;
56255;SDS011;57229;51.432;-2.598;2024-01-25T00:10:56;46.78;;;16.05;;
56255;SDS011;57229;51.432;-2.598;2024-01-25T00:13:22;46.78;;;16.15;;
56255;SDS011;57229;51.432;-2.598;2024-01-25T00:15:47;53.75;;;16.45;;
56255;SDS011;57229;51.432;-2.598;2024-01-25T00:18:13;45.28;;;14.57;;
56255;SDS011;57229;51.432;-2.598;2024-01-25T00:20:38;48.42;;;14.30;;
56255;SDS011;57229;51.432;-2.598;2024-01-25T00:23:04;47.90;;;14.27;;
56255;SDS011;57229;51.432;-2.598;2024-01-25T00:25:30;44.42;;;14.57;;
56255;SDS011;57229;51.432;-2.598;2024-01-25T00:27:55;48.47;;;15.00;;
56255;SDS011;57229;51.432;-2.598;2024-01-25T00:30:21;37.25;;;13.25;;
56255;SDS011;57229;51.432;-2.598;2024-01-25T00:32:47;38.28;;;13.95;;
56255;SDS011;57229;51.432;-2.598;2024-01-25T00:35:13;43.60;;;13.30;;
56255;SDS011;57229;51.432;-2.598;2024-01-25T00:37:40;50.17;;;13.50;;
56255;SDS011;57229;51.432;-2.598;2024-01-25T00:40:09;41.58;;;13.82;;
56255;SDS011;57229;51.432;-2.598;2024-01-25T00:42:42;37.78;;;12.20;;
56255;SDS011;57229;51.432;-2.598;2024-01-25T00:45:10;49.33;;;13.27;;
56255;SDS011;57229;51.432;-2.598;2024-01-25T00:47:36;55.65;;;13.73;;
56255;SDS011;57229;51.432;-2.598;2024-01-25T00:50:02;43.05;;;13.50;;
56255;SDS011;57229;51.432;-2.598;2024-01-25T00:52:29;44.55;;;13.52;;
56255;SDS011;57229;51.432;-2.598;2024-01-25T00:54:55;37.60;;;12.05;;
56255;SDS011;57229;51.432;-2.598;2024-01-25T00:57:21;39.00;;;12.82;;
56255;SDS011;57229;51.432;-2.598;2024-01-25T00:59:47;39.35;;;13.00;;
56255;SDS011;57229;51.432;-2.598;2024-01-25T01:02:12;44.25;;;12.65;;
56255;SDS011;57229;51.432;-2.598;2024-01-25T01:04:39;38.17;;;12.18;;
56255;SDS011;57229;51.432;-2.598;2024-01-25T01:07:05;48.53;;;12.50;;
56255;SDS011;57229;51.432;-2.598;2024-01-25T01:09:32;39.20;;;12.70;;
56255;SDS011;57229;51.432;-2.598;2024-01-25T01:11:57;39.58;;;12.90;;
56255;SDS011;57229;51.432;-2.598;2024-01-25T01:14:23;49.72;;;12.57;;
56255;SDS011;57229;51.432;-2.598;2024-01-25T01:16:49;47.35;;;12.52;;
56255;SDS011;57229;51.432;-2.598;2024-01-25T01:19:15;42.13;;;12.65;;
56255;SDS011;57229;51.432;-2.598;2024-01-25T01:21:41;40.58;;;11.85;;
56255;SDS011;57229;51.432;-2.598;2024-01-25T01:24:09;42.33;;;12.30;;
56255;SDS011;57229;51.432;-2.598;2024-01-25T01:26:35;46.63;;;12.20;;
56255;SDS011;57229;51.432;-2.598;2024-01-25T01:29:01;39.13;;;11.82;;
56255;SDS011;57229;51.432;-2.598;2024-01-25T01:31:27;44.20;;;12.35;;
56255;SDS011;57229;51.432;-2.598;2024-01-25T01:33:52;37.63;;;11.90;;
56255;SDS011;57229;51.432;-2.598;2024-01-25T01:36:18;41.60;;;11.88;;
56255;SDS011;57229;51.432;-2.598;2024-01-25T01:38:44;41.15;;;12.55;;
56255;SDS011;57229;51.432;-2.598;2024-01-25T01:41:10;52.65;;;12.10;;
56255;SDS011;57229;51.432;-2.598;2024-01-25T01:43:39;36.05;;;11.63;;
56255;SDS011;57229;51.432;-2.598;2024-01-25T01:46:11;38.50;;;10.18;;
56255;SDS011;57229;51.432;-2.598;2024-01-25T01:48:43;41.10;;;10.25;;
56255;SDS011;57229;51.432;-2.598;2024-01-25T01:51:09;42.55;;;12.02;;
56255;SDS011;57229;51.432;-2.598;2024-01-25T01:53:35;32.33;;;11.82;;
56255;SDS011;57229;51.432;-2.598;2024-01-25T01:56:01;40.30;;;11.70;;
56255;SDS011;57229;51.432;-2.598;2024-01-25T01:58:27;38.53;;;12.10;;
56255;SDS011;57229;51.432;-2.598;2024-01-25T02:00:55;47.80;;;12.40;;
56255;SDS011;57229;51.432;-2.598;2024-01-25T02:03:21;44.58;;;12.73;;
56255;SDS011;57229;51.432;-2.598;2024-01-25T02:05:47;38.88;;;12.70;;
56255;SDS011;57229;51.432;-2.598;2024-01-25T02:08:13;48.63;;;12.35;;
56255;SDS011;57229;51.432;-2.598;2024-01-25T02:10:39;45.38;;;12.60;;
56255;SDS011;57229;51.432;-2.598;2024-01-25T02:13:04;31.25;;;10.30;;
56255;SDS011;57229;51.432;-2.598;2024-01-25T02:15:30;41.70;;;11.05;;
56255;SDS011;57229;51.432;-2.598;2024-01-25T02:17:56;28.13;;;11.32;;
56255;SDS011;57229;51.432;-2.598;2024-01-25T02:20:21;34.08;;;11.77;;
56255;SDS011;57229;51.432;-2.598;2024-01-25T02:22:47;36.95;;;11.07;;
56255;SDS011;57229;51.432;-2.598;2024-01-25T02:25:12;41.95;;;10.70;;
56255;SDS011;57229;51.432;-2.598;2024-01-25T02:27:38;45.95;;;10.70;;
56255;SDS011;57229;51.432;-2.598;2024-01-25T02:30:07;36.72;;;9.88;;
56255;SDS011;57229;51.432;-2.598;2024-01-25T02:32:33;36.05;;;10.07;;
56255;SDS011;57229;51.432;-2.598;2024-01-25T02:34:59;45.03;;;10.35;;
56255;SDS011;57229;51.432;-2.598;2024-01-25T02:37:25;40.17;;;10.65;;
56255;SDS011;57229;51.432;-2.598;2024-01-25T02:39:51;32.10;;;9.95;;
56255;SDS011;57229;51.432;-2.598;2024-01-25T02:42:17;39.63;;;10.02;;
56255;SDS011;57229;51.432;-2.598;2024-01-25T02:44:43;46.88;;;10.40;;
56255;SDS011;57229;51.432;-2.598;2024-01-25T02:47:09;38.13;;;10.77;;
56255;SDS011;57229;51.432;-2.598;2024-01-25T02:49:34;30.80;;;9.38;;
56255;SDS011;57229;51.432;-2.598;2024-01-25T02:52:00;37.03;;;9.73;;
56255;SDS011;57229;51.432;-2.598;2024-01-25T02:54:26;36.08;;;10.63;;
56255;SDS011;57229;51.432;-2.598;2024-01-25T02:56:51;37.55;;;10.20;;
56255;SDS011;57229;51.432;-2.598;2024-01-25T02:59:17;37.53;;;9.88;;
56255;SDS011;57229;51.432;-2.598;2024-01-25T03:01:43;40.15;;;10.05;;
56255;SDS011;57229;51.432;-2.598;2024-01-25T03:04:09;33.63;;;9.68;;
56255;SDS011;57229;51.432;-2.598;2024-01-25T03:06:36;37.83;;;9.75;;
56255;SDS011;57229;51.432;-2.598;2024-01-25T03:09:01;42.75;;;10.32;;
56255;SDS011;57229;51.432;-2.598;2024-01-25T03:11:29;39.03;;;10.63;;
56255;SDS011;57229;51.432;-2.598;2024-01-25T03:13:55;43.10;;;10.40;;
56255;SDS011;57229;51.432;-2.598;2024-01-25T03:16:21;35.88;;;10.82;;
56255;SDS011;57229;51.432;-2.598;2024-01-25T03:18:47;45.60;;;10.20;;
56255;SDS011;57229;51.432;-2.598;2024-01-25T03:21:13;43.47;;;9.85;;
56255;SDS011;57229;51.432;-2.598;2024-01-25T03:23:39;33.95;;;9.55;;
56255;SDS011;57229;51.432;-2.598;2024-01-25T03:26:04;30.13;;;9.45;;
56255;SDS011;57229;51.432;-2.598;2024-01-25T03:28:31;34.15;;;10.57;;
56255;SDS011;57229;51.432;-2.598;2024-01-25T03:30:58;43.50;;;10.68;;
56255;SDS011;57229;51.432;-2.598;2024-01-25T03:33:23;43.15;;;9.60;;
56255;SDS011;57229;51.432;-2.598;2024-01-25T03:35:50;39.65;;;10.80;;
56255;SDS011;57229;51.432;-2.598;2024-01-25T03:38:16;43.58;;;9.80;;
56255;SDS011;57229;51.432;-2.598;2024-01-25T03:40:42;32.88;;;9.90;;
56255;SDS011;57229;51.432;-2.598;2024-01-25T03:43:08;41.78;;;10.30;;
56255;SDS011;57229;51.432;-2.598;2024-01-25T03:45:33;41.47;;;10.20;;
56255;SDS011;57229;51.432;-2.598;2024-01-25T03:47:59;46.00;;;11.13;;
56255;SDS011;57229;51.432;-2.598;2024-01-25T03:50:25;39.95;;;10.57;;
56255;SDS011;57229;51.432;-2.598;2024-01-25T03:52:51;42.45;;;9.95;;
56255;SDS011;57229;51.432;-2.598;2024-01-25T03:55:17;54.25;;;10.55;;
56255;SDS011;57229;51.432;-2.598;2024-01-25T03:57:42;33.30;;;10.20;;
56255;SDS011;57229;51.432;-2.598;2024-01-25T04:00:09;36.03;;;9.85;;
56255;SDS011;57229;51.432;-2.598;2024-01-25T04:02:36;38.65;;;10.20;;
56255;SDS011;57229;51.432;-2.598;2024-01-25T04:05:02;35.67;;;10.43;;
56255;SDS011;57229;51.432;-2.598;2024-01-25T04:07:28;36.45;;;10.40;;
56255;SDS011;57229;51.432;-2.598;2024-01-25T04:09:53;39.83;;;9.95;;
56255;SDS011;57229;51.432;-2.598;2024-01-25T04:12:19;34.95;;;9.45;;
56255;SDS011;57229;51.432;-2.598;2024-01-25T04:14:45;30.88;;;9.38;;
56255;SDS011;57229;51.432;-2.598;2024-01-25T04:17:10;34.17;;;10.77;;
56255;SDS011;57229;51.432;-2.598;2024-01-25T04:19:36;25.00;;;8.38;;
56255;SDS011;57229;51.432;-2.598;2024-01-25T04:24:57;12.57;;;7.25;;
56255;SDS011;57229;51.432;-2.598;2024-01-25T04:30:09;12.87;;;6.97;;
56255;SDS011;57229;51.432;-2.598;2024-01-25T04:32:35;13.40;;;7.18;;
56255;SDS011;57229;51.432;-2.598;2024-01-25T04:35:01;11.18;;;7.90;;
56255;SDS011;57229;51.432;-2.598;2024-01-25T04:37:27;10.85;;;7.35;;
56255;SDS011;57229;51.432;-2.598;2024-01-25T04:39:52;8.82;;;7.32;;
56255;SDS011;57229;51.432;-2.598;2024-01-25T04:42:18;9.93;;;7.40;;
56255;SDS011;57229;51.432;-2.598;2024-01-25T04:44:44;11.30;;;7.22;;
56255;SDS011;57229;51.432;-2.598;2024-01-25T04:47:10;14.30;;;7.85;;
56255;SDS011;57229;51.432;-2.598;2024-01-25T04:49:36;9.68;;;8.48;;
56255;SDS011;57229;51.432;-2.598;2024-01-25T04:52:02;13.70;;;8.40;;
56255;SDS011;57229;51.432;-2.598;2024-01-25T04:54:28;10.90;;;7.72;;
56255;SDS011;57229;51.432;-2.598;2024-01-25T04:56:53;11.73;;;8.40;;
56255;SDS011;57229;51.432;-2.598;2024-01-25T04:59:20;10.93;;;8.55;;
56255;SDS011;57229;51.432;-2.598;2024-01-25T05:01:45;11.25;;;8.45;;
56255;SDS011;57229;51.432;-2.598;2024-01-25T05:04:11;13.20;;;8.43;;
56255;SDS011;57229;51.432;-2.598;2024-01-25T05:06:37;8.55;;;7.75;;
56255;SDS011;57229;51.432;-2.598;2024-01-25T05:09:03;12.48;;;7.95;;
56255;SDS011;57229;51.432;-2.598;2024-01-25T05:11:28;11.20;;;7.85;;
56255;SDS011;57229;51.432;-2.598;2024-01-25T05:14:39;9.10;;;8.10;;
56255;SDS011;57229;51.432;-2.598;2024-01-25T05:16:46;9.80;;;8.18;;
56255;SDS011;57229;51.432;-2.598;2024-01-25T05:19:11;8.63;;;7.78;;
56255;SDS011;57229;51.432;-2.598;2024-01-25T05:21:37;9.88;;;7.55;;
56255;SDS011;57229;51.432;-2.598;2024-01-25T05:24:03;8.32;;;7.63;;
56255;SDS011;57229;51.432;-2.598;2024-01-25T05:26:39;9.90;;;7.63;;
56255;SDS011;57229;51.432;-2.598;2024-01-25T05:29:05;8.10;;;7.30;;
56255;SDS011;57229;51.432;-2.598;2024-01-25T05:31:30;7.35;;;6.75;;
56255;SDS011;57229;51.432;-2.598;2024-01-25T05:33:56;7.70;;;6.95;;
56255;SDS011;57229;51.432;-2.598;2024-01-25T05:36:22;7.88;;;7.15;;
56255;SDS011;57229;51.432;-2.598;2024-01-25T05:38:47;7.75;;;7.05;;
56255;SDS011;57229;51.432;-2.598;2024-01-25T05:41:13;7.53;;;6.93;;
56255;SDS011;57229;51.432;-2.598;2024-01-25T05:44:16;7.53;;;6.93;;
56255;SDS011;57229;51.432;-2.598;2024-01-25T05:46:57;7.53;;;6.78;;
56255;SDS011;57229;51.432;-2.598;2024-01-25T05:49:23;6.70;;;6.28;;
56255;SDS011;57229;51.432;-2.598;2024-01-25T05:51:48;7.57;;;6.88;;
56255;SDS011;57229;51.432;-2.598;2024-01-25T05:54:16;6.80;;;6.30;;
56255;SDS011;57229;51.432;-2.598;2024-01-25T05:56:42;7.50;;;6.78;;
56255;SDS011;57229;51.432;-2.598;2024-01-25T05:59:08;7.47;;;6.80;;
56255;SDS011;57229;51.432;-2.598;2024-01-25T06:01:33;7.15;;;6.57;;
56255;SDS011;57229;51.432;-2.598;2024-01-25T06:03:59;6.90;;;6.40;;
56255;SDS011;57229;51.432;-2.598;2024-01-25T06:06:25;7.38;;;6.78;;
56255;SDS011;57229;51.432;-2.598;2024-01-25T06:08:50;6.78;;;6.18;;
56255;SDS011;57229;51.432;-2.598;2024-01-25T06:11:16;8.02;;;7.00;;
56255;SDS011;57229;51.432;-2.598;2024-01-25T06:13:42;7.40;;;6.80;;
56255;SDS011;57229;51.432;-2.598;2024-01-25T06:16:07;7.97;;;6.60;;
56255;SDS011;57229;51.432;-2.598;2024-01-25T06:18:33;7.20;;;6.60;;
56255;SDS011;57229;51.432;-2.598;2024-01-25T06:20:59;7.63;;;6.93;;
56255;SDS011;57229;51.432;-2.598;2024-01-25T06:23:24;7.70;;;7.00;;
56255;SDS011;57229;51.432;-2.598;2024-01-25T06:25:50;9.48;;;7.53;;
56255;SDS011;57229;51.432;-2.598;2024-01-25T06:28:16;8.88;;;7.75;;
56255;SDS011;57229;51.432;-2.598;2024-01-25T06:30:41;9.68;;;8.75;;
56255;SDS011;57229;51.432;-2.598;2024-01-25T06:33:07;9.38;;;8.45;;
56255;SDS011;57229;51.432;-2.598;2024-01-25T06:35:33;9.63;;;8.57;;
56255;SDS011;57229;51.432;-2.598;2024-01-25T06:37:59;11.13;;;8.25;;
56255;SDS011;57229;51.432;-2.598;2024-01-25T06:40:24;9.15;;;8.07;;
56255;SDS011;57229;51.432;-2.598;2024-01-25T06:42:50;11.80;;;8.43;;
56255;SDS011;57229;51.432;-2.598;2024-01-25T06:45:16;11.07;;;8.40;;
56255;SDS011;57229;51.432;-2.598;2024-01-25T06:47:42;12.40;;;8.65;;
56255;SDS011;57229;51.432;-2.598;2024-01-25T06:50:08;10.45;;;8.32;;
56255;SDS011;57229;51.432;-2.598;2024-01-25T06:52:34;9.73;;;7.85;;
56255;SDS011;57229;51.432;-2.598;2024-01-25T06:55:00;13.65;;;8.38;;
56255;SDS011;57229;51.432;-2.598;2024-01-25T06:57:28;10.55;;;8.05;;
56255;SDS011;57229;51.432;-2.598;2024-01-25T06:59:54;9.55;;;8.05;;
56255;SDS011;57229;51.432;-2.598;2024-01-25T07:02:20;11.68;;;8.73;;
56255;SDS011;57229;51.432;-2.598;2024-01-25T07:04:45;11.25;;;8.55;;
56255;SDS011;57229;51.432;-2.598;2024-01-25T07:07:11;9.63;;;7.70;;
56255;SDS011;57229;51.432;-2.598;2024-01-25T07:09:36;10.68;;;8.15;;
56255;SDS011;57229;51.432;-2.598;2024-01-25T07:12:02;9.75;;;7.32;;
56255;SDS011;57229;51.432;-2.598;2024-01-25T07:14:28;17.73;;;8.55;;
56255;SDS011;57229;51.432;-2.598;2024-01-25T07:16:53;12.27;;;7.93;;
56255;SDS011;57229;51.432;-2.598;2024-01-25T07:19:19;18.77;;;8.40;;
56255;SDS011;57229;51.432;-2.598;2024-01-25T07:21:45;15.15;;;7.85;;
56255;SDS011;57229;51.432;-2.598;2024-01-25T07:24:11;14.82;;;8.48;;
56255;SDS011;57229;51.432;-2.598;2024-01-25T07:26:40;8.85;;;7.90;;
56255;SDS011;57229;51.432;-2.598;2024-01-25T07:29:06;13.68;;;7.03;;
56255;SDS011;57229;51.432;-2.598;2024-01-25T07:31:31;13.90;;;7.75;;
56255;SDS011;57229;51.432;-2.598;2024-01-25T07:33:57;12.20;;;7.13;;
56255;SDS011;57229;51.432;-2.598;2024-01-25T07:36:23;11.65;;;7.82;;
56255;SDS011;57229;51.432;-2.598;2024-01-25T07:38:55;11.95;;;7.07;;
56255;SDS011;57229;51.432;-2.598;2024-01-25T07:47:23;13.60;;;7.60;;
56255;SDS011;57229;51.432;-2.598;2024-01-25T07:49:49;11.55;;;6.97;;
56255;SDS011;57229;51.432;-2.598;2024-01-25T07:52:15;9.27;;;7.35;;
56255;SDS011;57229;51.432;-2.598;2024-01-25T07:54:40;13.05;;;8.05;;
56255;SDS011;57229;51.432;-2.598;2024-01-25T07:57:06;11.40;;;7.18;;
56255;SDS011;57229;51.432;-2.598;2024-01-25T07:59:32;12.02;;;7.55;;
56255;SDS011;57229;51.432;-2.598;2024-01-25T08:01:59;13.48;;;7.68;;
56255;SDS011;57229;51.432;-2.598;2024-01-25T08:04:25;18.48;;;7.95;;
56255;SDS011;57229;51.432;-2.598;2024-01-25T08:06:51;13.43;;;7.22;;
56255;SDS011;57229;51.432;-2.598;2024-01-25T08:09:17;16.33;;;7.38;;
56255;SDS011;57229;51.432;-2.598;2024-01-25T08:11:43;12.05;;;6.95;;
56255;SDS011;57229;51.432;-2.598;2024-01-25T08:14:09;12.27;;;7.60;;
56255;SDS011;57229;51.432;-2.598;2024-01-25T08:16:36;15.15;;;7.53;;
56255;SDS011;57229;51.432;-2.598;2024-01-25T08:19:02;21.08;;;7.97;;
56255;SDS011;57229;51.432;-2.598;2024-01-25T08:21:27;14.45;;;7.53;;
56255;SDS011;57229;51.432;-2.598;2024-01-25T08:23:53;11.38;;;7.88;;
56255;SDS011;57229;51.432;-2.598;2024-01-25T08:26:19;13.98;;;7.53;;
56255;SDS011;57229;51.432;-2.598;2024-01-25T08:28:46;12.07;;;7.40;;
56255;SDS011;57229;51.432;-2.598;2024-01-25T08:31:12;8.38;;;7.03;;
56255;SDS011;57229;51.432;-2.598;2024-01-25T08:33:38;14.10;;;7.78;;
56255;SDS011;57229;51.432;-2.598;2024-01-25T08:36:09;12.20;;;6.78;;
56255;SDS011;57229;51.432;-2.598;2024-01-25T08:38:35;11.02;;;6.80;;
56255;SDS011;57229;51.432;-2.598;2024-01-25T08:41:00;9.77;;;6.95;;
56255;SDS011;57229;51.432;-2.598;2024-01-25T08:43:26;9.50;;;6.60;;
56255;SDS011;57229;51.432;-2.598;2024-01-25T08:45:55;8.18;;;7.05;;
56255;SDS011;57229;51.432;-2.598;2024-01-25T08:48:21;9.80;;;7.22;;
56255;SDS011;57229;51.432;-2.598;2024-01-25T08:50:47;10.68;;;6.85;;
56255;SDS011;57229;51.432;-2.598;2024-01-25T08:53:24;9.40;;;6.93;;
56255;SDS011;57229;51.432;-2.598;2024-01-25T08:55:53;10.52;;;6.80;;
56255;SDS011;57229;51.432;-2.598;2024-01-25T08:58:19;9.48;;;6.78;;
56255;SDS011;57229;51.432;-2.598;2024-01-25T09:00:45;8.70;;;6.75;;
56255;SDS011;57229;51.432;-2.598;2024-01-25T09:03:10;13.65;;;6.90;;
56255;SDS011;57229;51.432;-2.598;2024-01-25T09:05:36;9.65;;;6.30;;
56255;SDS011;57229;51.432;-2.598;2024-01-25T09:08:05;7.70;;;6.40;;
56255;SDS011;57229;51.432;-2.598;2024-01-25T09:10:31;6.95;;;6.43;;
56255;SDS011;57229;51.432;-2.598;2024-01-25T09:12:56;9.07;;;6.47;;
56255;SDS011;57229;51.432;-2.598;2024-01-25T09:15:22;8.35;;;6.10;;
56255;SDS011;57229;51.432;-2.598;2024-01-25T09:17:48;8.02;;;6.45;;
56255;SDS011;57229;51.432;-2.598;2024-01-25T09:20:13;8.60;;;7.00;;
56255;SDS011;57229;51.432;-2.598;2024-01-25T09:22:39;9.70;;;6.10;;
56255;SDS011;57229;51.432;-2.598;2024-01-25T09:25:05;8.00;;;6.28;;
56255;SDS011;57229;51.432;-2.598;2024-01-25T09:27:31;13.43;;;6.88;;
56255;SDS011;57229;51.432;-2.598;2024-01-25T09:29:56;12.38;;;6.80;;
56255;SDS011;57229;51.432;-2.598;2024-01-25T09:32:22;7.72;;;6.10;;
56255;SDS011;57229;51.432;-2.598;2024-01-25T09:34:47;10.07;;;6.70;;
56255;SDS011;57229;51.432;-2.598;2024-01-25T09:37:13;11.18;;;6.80;;
56255;SDS011;57229;51.432;-2.598;2024-01-25T09:39:39;9.98;;;6.20;;
56255;SDS011;57229;51.432;-2.598;2024-01-25T09:42:05;7.82;;;6.03;;
56255;SDS011;57229;51.432;-2.598;2024-01-25T09:44:32;14.50;;;6.10;;
56255;SDS011;57229;51.432;-2.598;2024-01-25T09:46:57;7.43;;;6.10;;
56255;SDS011;57229;51.432;-2.598;2024-01-25T09:49:23;12.85;;;6.50;;
56255;SDS011;57229;51.432;-2.598;2024-01-25T09:51:49;8.80;;;6.53;;
56255;SDS011;57229;51.432;-2.598;2024-01-25T09:54:16;8.27;;;6.28;;
56255;SDS011;57229;51.432;-2.598;2024-01-25T09:56:42;8.50;;;6.05;;
56255;SDS011;57229;51.432;-2.598;2024-01-25T09:59:08;6.72;;;6.13;;
56255;SDS011;57229;51.432;-2.598;2024-01-25T10:01:34;12.52;;;6.85;;
56255;SDS011;57229;51.432;-2.598;2024-01-25T10:03:59;11.30;;;6.32;;
56255;SDS011;57229;51.432;-2.598;2024-01-25T10:06:25;10.98;;;6.20;;
56255;SDS011;57229;51.432;-2.598;2024-01-25T10:08:51;7.97;;;6.40;;
56255;SDS011;57229;51.432;-2.598;2024-01-25T10:11:18;10.23;;;6.47;;
56255;SDS011;57229;51.432;-2.598;2024-01-25T10:13:44;11.05;;;6.32;;
56255;SDS011;57229;51.432;-2.598;2024-01-25T10:16:14;9.70;;;6.18;;
56255;SDS011;57229;51.432;-2.598;2024-01-25T10:18:41;10.70;;;6.45;;
56255;SDS011;57229;51.432;-2.598;2024-01-25T10:21:09;7.63;;;6.28;;
56255;SDS011;57229;51.432;-2.598;2024-01-25T10:23:35;8.30;;;6.38;;
56255;SDS011;57229;51.432;-2.598;2024-01-25T10:26:02;8.70;;;6.53;;
56255;SDS011;57229;51.432;-2.598;2024-01-25T10:28:28;12.88;;;6.32;;
56255;SDS011;57229;51.432;-2.598;2024-01-25T10:30:56;9.25;;;6.10;;
56255;SDS011;57229;51.432;-2.598;2024-01-25T10:33:23;11.40;;;6.03;;
56255;SDS011;57229;51.432;-2.598;2024-01-25T10:35:51;13.48;;;6.35;;
56255;SDS011;57229;51.432;-2.598;2024-01-25T10:38:20;10.45;;;6.35;;
56255;SDS011;57229;51.432;-2.598;2024-01-25T10:40:46;8.10;;;6.22;;
56255;SDS011;57229;51.432;-2.598;2024-01-25T10:43:12;10.63;;;6.50;;
56255;SDS011;57229;51.432;-2.598;2024-01-25T10:45:38;9.25;;;6.05;;
56255;SDS011;57229;51.432;-2.598;2024-01-25T10:48:04;8.07;;;6.38;;
56255;SDS011;57229;51.432;-2.598;2024-01-25T10:50:32;9.60;;;6.05;;
56255;SDS011;57229;51.432;-2.598;2024-01-25T10:52:57;11.32;;;6.50;;
56255;SDS011;57229;51.432;-2.598;2024-01-25T10:55:24;11.15;;;6.93;;
56255;SDS011;57229;51.432;-2.598;2024-01-25T10:57:51;12.15;;;6.30;;
56255;SDS011;57229;51.432;-2.598;2024-01-25T11:00:17;7.85;;;6.10;;
56255;SDS011;57229;51.432;-2.598;2024-01-25T11:02:44;12.65;;;6.50;;
56255;SDS011;57229;51.432;-2.598;2024-01-25T11:05:12;7.88;;;6.35;;
56255;SDS011;57229;51.432;-2.598;2024-01-25T11:07:40;11.02;;;6.80;;
56255;SDS011;57229;51.432;-2.598;2024-01-25T11:10:10;12.75;;;6.75;;
56255;SDS011;57229;51.432;-2.598;2024-01-25T11:12:56;11.57;;;6.82;;
56255;SDS011;57229;51.432;-2.598;2024-01-25T11:15:33;13.40;;;6.38;;
56255;SDS011;57229;51.432;-2.598;2024-01-25T11:18:00;7.25;;;5.72;;
56255;SDS011;57229;51.432;-2.598;2024-01-25T11:20:28;13.63;;;6.40;;
56255;SDS011;57229;51.432;-2.598;2024-01-25T11:22:57;9.73;;;6.40;;
56255;SDS011;57229;51.432;-2.598;2024-01-25T11:25:31;12.15;;;7.00;;
56255;SDS011;57229;51.432;-2.598;2024-01-25T11:27:57;11.07;;;6.88;;
56255;SDS011;57229;51.432;-2.598;2024-01-25T11:30:24;7.93;;;5.97;;
56255;SDS011;57229;51.432;-2.598;2024-01-25T11:32:50;9.45;;;6.97;;
56255;SDS011;57229;51.432;-2.598;2024-01-25T11:35:16;6.30;;;5.70;;
56255;SDS011;57229;51.432;-2.598;2024-01-25T11:37:44;9.18;;;6.30;;
56255;SDS011;57229;51.432;-2.598;2024-01-25T11:40:11;10.63;;;6.50;;
56255;SDS011;57229;51.432;-2.598;2024-01-25T11:42:41;8.50;;;6.20;;
56255;SDS011;57229;51.432;-2.598;2024-01-25T11:45:12;7.03;;;6.18;;
56255;SDS011;57229;51.432;-2.598;2024-01-25T11:47:39;10.38;;;6.47;;
56255;SDS011;57229;51.432;-2.598;2024-01-25T11:50:06;9.75;;;6.10;;
56255;SDS011;57229;51.432;-2.598;2024-01-25T11:52:33;10.77;;;6.35;;
56255;SDS011;57229;51.432;-2.598;2024-01-25T11:55:08;11.52;;;6.20;;
56255;SDS011;57229;51.432;-2.598;2024-01-25T11:57:35;10.20;;;5.90;;
56255;SDS011;57229;51.432;-2.598;2024-01-25T12:00:05;8.98;;;6.00;;
56255;SDS011;57229;51.432;-2.598;2024-01-25T12:02:34;11.57;;;6.20;;
56255;SDS011;57229;51.432;-2.598;2024-01-25T12:05:01;6.75;;;6.13;;
56255;SDS011;57229;51.432;-2.598;2024-01-25T12:07:29;7.78;;;6.32;;
56255;SDS011;57229;51.432;-2.598;2024-01-25T12:10:05;9.40;;;6.10;;
56255;SDS011;57229;51.432;-2.598;2024-01-25T12:12:32;6.60;;;6.05;;
56255;SDS011;57229;51.432;-2.598;2024-01-25T12:15:01;6.75;;;6.10;;
56255;SDS011;57229;51.432;-2.598;2024-01-25T12:17:30;7.50;;;5.82;;
56255;SDS011;57229;51.432;-2.598;2024-01-25T12:19:59;10.70;;;6.20;;
56255;SDS011;57229;51.432;-2.598;2024-01-25T12:22:28;8.27;;;5.55;;
56255;SDS011;57229;51.432;-2.598;2024-01-25T12:24:55;5.95;;;5.43;;
56255;SDS011;57229;51.432;-2.598;2024-01-25T12:27:21;6.15;;;5.10;;
56255;SDS011;57229;51.432;-2.598;2024-01-25T12:29:48;6.10;;;4.80;;
56255;SDS011;57229;51.432;-2.598;2024-01-25T12:32:14;5.82;;;4.97;;
56255;SDS011;57229;51.432;-2.598;2024-01-25T12:34:40;9.88;;;5.53;;
56255;SDS011;57229;51.432;-2.598;2024-01-25T12:37:07;6.90;;;5.38;;
56255;SDS011;57229;51.432;-2.598;2024-01-25T12:39:33;7.65;;;5.60;;
56255;SDS011;57229;51.432;-2.598;2024-01-25T12:41:59;8.77;;;5.72;;
56255;SDS011;57229;51.432;-2.598;2024-01-25T12:44:24;6.20;;;5.60;;
56255;SDS011;57229;51.432;-2.598;2024-01-25T12:46:50;6.07;;;5.47;;
56255;SDS011;57229;51.432;-2.598;2024-01-25T12:49:17;8.27;;;5.60;;
56255;SDS011;57229;51.432;-2.598;2024-01-25T12:51:43;8.60;;;5.97;;
56255;SDS011;57229;51.432;-2.598;2024-01-25T12:54:08;6.72;;;5.60;;
56255;SDS011;57229;51.432;-2.598;2024-01-25T12:56:35;7.25;;;6.05;;
56255;SDS011;57229;51.432;-2.598;2024-01-25T12:59:00;13.02;;;6.22;;
56255;SDS011;57229;51.432;-2.598;2024-01-25T13:01:26;10.85;;;6.10;;
56255;SDS011;57229;51.432;-2.598;2024-01-25T13:03:52;6.95;;;5.82;;
56255;SDS011;57229;51.432;-2.598;2024-01-25T13:06:18;8.52;;;6.10;;
56255;SDS011;57229;51.432;-2.598;2024-01-25T13:08:43;6.55;;;5.97;;
56255;SDS011;57229;51.432;-2.598;2024-01-25T13:11:09;8.35;;;6.35;;
56255;SDS011;57229;51.432;-2.598;2024-01-25T13:13:34;7.32;;;6.70;;
56255;SDS011;57229;51.432;-2.598;2024-01-25T13:16:00;9.93;;;6.60;;
56255;SDS011;57229;51.432;-2.598;2024-01-25T13:18:26;7.05;;;6.40;;
56255;SDS011;57229;51.432;-2.598;2024-01-25T13:20:51;6.72;;;6.13;;
56255;SDS011;57229;51.432;-2.598;2024-01-25T13:23:17;9.43;;;5.80;;
56255;SDS011;57229;51.432;-2.598;2024-01-25T13:25:43;9.50;;;6.35;;
56255;SDS011;57229;51.432;-2.598;2024-01-25T13:28:08;9.35;;;6.22;;
56255;SDS011;57229;51.432;-2.598;2024-01-25T13:30:34;6.78;;;6.18;;
56255;SDS011;57229;51.432;-2.598;2024-01-25T13:32:59;6.53;;;5.90;;
56255;SDS011;57229;51.432;-2.598;2024-01-25T13:35:28;6.38;;;5.68;;
56255;SDS011;57229;51.432;-2.598;2024-01-25T13:37:53;6.75;;;6.10;;
56255;SDS011;57229;51.432;-2.598;2024-01-25T13:40:19;8.90;;;6.22;;
56255;SDS011;57229;51.432;-2.598;2024-01-25T13:42:45;7.65;;;6.07;;
56255;SDS011;57229;51.432;-2.598;2024-01-25T13:45:10;9.85;;;6.15;;
56255;SDS011;57229;51.432;-2.598;2024-01-25T13:47:36;6.20;;;5.60;;
56255;SDS011;57229;51.432;-2.598;2024-01-25T13:50:01;8.32;;;5.70;;
56255;SDS011;57229;51.432;-2.598;2024-01-25T13:52:27;11.55;;;6.90;;
56255;SDS011;57229;51.432;-2.598;2024-01-25T13:54:52;7.07;;;5.72;;
56255;SDS011;57229;51.432;-2.598;2024-01-25T13:57:20;6.70;;;5.80;;
56255;SDS011;57229;51.432;-2.598;2024-01-25T13:59:48;9.38;;;6.18;;
56255;SDS011;57229;51.432;-2.598;2024-01-25T14:02:14;9.02;;;5.68;;
56255;SDS011;57229;51.432;-2.598;2024-01-25T14:04:39;8.43;;;5.88;;
56255;SDS011;57229;51.432;-2.598;2024-01-25T14:07:05;6.28;;;5.20;;
56255;SDS011;57229;51.432;-2.598;2024-01-25T14:09:31;6.47;;;5.72;;
56255;SDS011;57229;51.432;-2.598;2024-01-25T14:11:57;8.50;;;5.72;;
56255;SDS011;57229;51.432;-2.598;2024-01-25T14:14:22;7.35;;;5.47;;
56255;SDS011;57229;51.432;-2.598;2024-01-25T14:16:48;5.68;;;5.20;;
56255;SDS011;57229;51.432;-2.598;2024-01-25T14:19:13;8.70;;;5.47;;
56255;SDS011;57229;51.432;-2.598;2024-01-25T14:21:39;6.45;;;5.30;;
56255;SDS011;57229;51.432;-2.598;2024-01-25T14:24:05;9.70;;;5.65;;
56255;SDS011;57229;51.432;-2.598;2024-01-25T14:26:30;6.05;;;5.55;;
56255;SDS011;57229;51.432;-2.598;2024-01-25T14:28:56;5.97;;;5.43;;
56255;SDS011;57229;51.432;-2.598;2024-01-25T14:31:22;6.65;;;5.30;;